createdAt,value
2023-01-11T00:01:41.450Z,1.10
2023-01-11T00:04:09.912Z,1.07
2023-01-11T00:06:41.307Z,1.03
2023-01-11T00:09:11.247Z,0.90
2023-01-11T00:11:41.070Z,1.20
2023-01-11T00:14:09.534Z,0.83
2023-01-11T00:16:40.754Z,1.00
2023-01-11T00:19:12.294Z,1.27
2023-01-11T00:21:40.741Z,1.40
2023-01-11T00:24:12.235Z,0.93
2023-01-11T00:26:43.654Z,1.10
2023-01-11T00:29:13.664Z,1.53
2023-01-11T00:31:42.059Z,1.00
2023-01-11T00:34:13.593Z,1.47
2023-01-11T00:36:44.833Z,1.17
2023-01-11T00:39:16.228Z,0.93
2023-01-11T00:42:03.581Z,1.00
2023-01-11T00:45:01.824Z,1.33
2023-01-11T00:47:48.587Z,1.90
2023-01-11T00:50:17.090Z,1.03
2023-01-11T00:52:46.188Z,1.00
2023-01-11T00:55:15.207Z,0.90
2023-01-11T00:57:45.620Z,1.03
2023-01-11T01:00:15.233Z,0.83
2023-01-11T01:02:44.095Z,1.93
2023-01-11T01:05:13.007Z,0.83
2023-01-11T01:07:42.095Z,1.10
2023-01-11T01:10:11.770Z,1.23
2023-01-11T01:12:58.676Z,0.73
2023-01-11T01:15:29.169Z,1.40
2023-01-11T01:17:58.200Z,1.03
2023-01-11T01:20:27.360Z,0.93
2023-01-11T01:22:56.270Z,1.07
2023-01-11T01:25:25.328Z,1.33
2023-01-11T01:27:54.206Z,1.10
2023-01-11T01:30:23.106Z,1.10
2023-01-11T01:32:53.433Z,0.80
2023-01-11T01:35:22.290Z,1.23
2023-01-11T01:37:51.205Z,0.97
2023-01-11T01:40:20.116Z,1.10
2023-01-11T01:42:49.051Z,0.80
2023-01-11T01:45:24.348Z,1.13
2023-01-11T01:47:56.375Z,1.00
2023-01-11T01:50:27.992Z,1.07
2023-01-11T01:53:00.039Z,1.57
2023-01-11T01:55:30.321Z,1.20
2023-01-11T01:58:00.237Z,1.00
2023-01-11T02:00:29.044Z,0.80
2023-01-11T02:02:59.812Z,0.83
2023-01-11T02:05:28.364Z,1.00
2023-01-11T02:07:58.893Z,1.10
2023-01-11T02:10:29.035Z,1.70
2023-01-11T02:13:01.585Z,0.90
2023-01-11T02:15:30.939Z,1.13
2023-01-11T02:18:00.422Z,1.10
2023-01-11T02:20:38.075Z,0.83
2023-01-11T02:23:24.663Z,1.00
2023-01-11T02:26:12.249Z,0.80
2023-01-11T02:28:46.258Z,0.80
2023-01-11T02:31:26.739Z,0.70
2023-01-11T02:34:06.153Z,0.70
2023-01-11T02:36:46.819Z,0.90
2023-01-11T02:39:22.462Z,1.17
2023-01-11T02:42:13.458Z,1.00
2023-01-11T02:45:05.236Z,0.80
2023-01-11T02:47:39.779Z,1.10
2023-01-11T02:50:15.358Z,0.80
2023-01-11T02:52:48.337Z,1.00
2023-01-11T02:55:19.620Z,0.60
2023-01-11T02:57:49.418Z,0.87
2023-01-11T03:00:21.607Z,0.80
2023-01-11T03:03:07.407Z,1.07
2023-01-11T03:05:39.134Z,0.70
2023-01-11T03:08:14.049Z,0.73
2023-01-11T03:10:49.368Z,0.70
2023-01-11T03:13:24.722Z,0.70
2023-01-11T03:16:19.707Z,0.90
2023-01-11T03:18:50.915Z,0.87
2023-01-11T03:21:28.716Z,0.70
2023-01-11T03:24:10.574Z,0.80
2023-01-11T03:26:50.880Z,0.70
2023-01-11T03:29:28.138Z,0.60
2023-01-11T03:32:07.670Z,1.17
2023-01-11T03:34:40.324Z,0.70
2023-01-11T03:37:13.272Z,0.80
2023-01-11T03:39:46.805Z,0.80
2023-01-11T03:42:20.575Z,0.80
2023-01-11T03:44:54.177Z,0.60
2023-01-11T03:47:26.191Z,0.80
2023-01-11T03:49:57.275Z,1.00
2023-01-11T03:52:30.532Z,0.80
2023-01-11T03:55:00.831Z,1.00
2023-01-11T03:57:33.110Z,0.80
2023-01-11T04:00:01.581Z,0.60
2023-01-11T04:02:36.765Z,0.73
2023-01-11T04:05:06.181Z,0.73
2023-01-11T04:07:34.351Z,0.80
2023-01-11T04:10:02.779Z,0.90
2023-01-11T04:12:30.993Z,0.80
2023-01-11T04:14:59.195Z,0.80
2023-01-11T04:17:27.370Z,0.67
2023-01-11T04:19:56.875Z,0.70
2023-01-11T04:22:24.953Z,0.83
2023-01-11T04:24:53.197Z,0.80
2023-01-11T04:27:21.363Z,0.90
2023-01-11T04:29:51.618Z,0.60
2023-01-11T04:32:19.744Z,0.70
2023-01-11T04:34:47.859Z,0.90
2023-01-11T04:37:17.371Z,0.70
2023-01-11T04:39:45.549Z,1.00
2023-01-11T04:42:19.641Z,0.97
2023-01-11T04:44:48.916Z,0.70
2023-01-11T04:47:17.603Z,0.97
2023-01-11T04:49:46.497Z,0.70
2023-01-11T04:52:18.145Z,0.90
2023-01-11T04:54:47.280Z,0.90
2023-01-11T04:57:17.717Z,1.00
2023-01-11T04:59:46.800Z,0.70
2023-01-11T05:02:15.091Z,1.10
2023-01-11T05:04:43.304Z,0.70
2023-01-11T05:07:12.209Z,0.40
2023-01-11T05:09:42.062Z,0.93
2023-01-11T05:12:10.508Z,0.70
2023-01-11T05:14:38.897Z,0.70
2023-01-11T05:17:07.320Z,0.70
2023-01-11T05:19:35.766Z,0.70
2023-01-11T05:22:04.163Z,1.30
2023-01-11T05:24:32.637Z,0.80
2023-01-11T05:27:02.391Z,0.60
2023-01-11T05:29:30.778Z,1.10
2023-01-11T05:31:59.212Z,0.97
2023-01-11T05:34:27.695Z,0.50
2023-01-11T05:36:56.087Z,0.80
2023-01-11T05:39:24.463Z,1.27
2023-01-11T05:41:52.881Z,0.87
2023-01-11T05:44:40.300Z,0.70
2023-01-11T05:47:08.592Z,0.63
2023-01-11T05:49:36.840Z,0.70
2023-01-11T05:52:05.297Z,0.63
2023-01-11T05:54:33.684Z,0.60
2023-01-11T05:57:02.147Z,0.77
2023-01-11T05:59:32.278Z,0.70
2023-01-11T06:02:01.646Z,0.90
2023-01-11T06:04:30.987Z,0.77
2023-01-11T06:06:59.107Z,1.00
2023-01-11T06:09:28.430Z,0.90
2023-01-11T06:11:57.720Z,0.90
2023-01-11T06:14:26.857Z,1.07
2023-01-11T06:16:57.469Z,0.73
2023-01-11T06:19:26.595Z,1.60
2023-01-11T06:21:55.875Z,1.40
2023-01-11T06:24:24.774Z,0.90
2023-01-11T06:26:55.092Z,1.13
2023-01-11T06:29:24.274Z,1.00
2023-01-11T06:31:53.702Z,1.03
2023-01-11T06:34:24.376Z,0.97
2023-01-11T06:36:53.692Z,0.93
2023-01-11T06:39:23.084Z,0.90
2023-01-11T06:41:52.475Z,0.70
2023-01-11T06:44:21.985Z,0.73
2023-01-11T06:46:51.285Z,0.67
2023-01-11T06:49:20.715Z,0.60
2023-01-11T06:51:51.488Z,1.13
2023-01-11T06:54:23.125Z,0.83
2023-01-11T06:56:52.430Z,1.40
2023-01-11T06:59:21.742Z,0.80
2023-01-11T07:01:51.052Z,1.00
2023-01-11T07:04:21.568Z,1.00
2023-01-11T07:06:54.404Z,0.93
2023-01-11T07:09:23.729Z,0.90
2023-01-11T07:11:53.099Z,0.90
2023-01-11T07:14:22.600Z,1.00
2023-01-11T07:16:51.863Z,0.80
2023-01-11T07:19:21.104Z,1.10
2023-01-11T07:21:51.749Z,0.80
2023-01-11T07:24:22.914Z,1.33
2023-01-11T07:26:53.293Z,0.83
2023-01-11T07:29:21.885Z,0.90
2023-01-11T07:31:50.882Z,1.10
2023-01-11T07:34:20.253Z,0.93
2023-01-11T07:36:49.361Z,0.90
2023-01-11T07:39:20.015Z,0.80
2023-01-11T07:42:02.275Z,0.80
2023-01-11T07:44:34.819Z,0.70
2023-01-11T07:47:10.940Z,0.87
2023-01-11T07:49:47.711Z,0.83
2023-01-11T07:52:22.298Z,0.73
2023-01-11T07:54:52.231Z,1.07
2023-01-11T07:57:21.472Z,0.70
2023-01-11T07:59:50.588Z,0.70
2023-01-11T08:02:19.453Z,0.70
2023-01-11T08:04:48.627Z,0.90
2023-01-11T08:07:17.858Z,0.60
2023-01-11T08:09:46.462Z,0.73
2023-01-11T08:12:33.542Z,0.90
2023-01-11T08:15:01.751Z,0.90
2023-01-11T08:17:31.679Z,0.70
2023-01-11T08:19:59.784Z,1.03
2023-01-11T08:22:27.930Z,0.80
2023-01-11T08:24:57.129Z,1.03
2023-01-11T08:27:27.784Z,0.90
2023-01-11T08:29:56.215Z,0.63
2023-01-11T08:32:25.249Z,1.30
2023-01-11T08:34:54.271Z,0.80
2023-01-11T08:37:23.280Z,1.00
2023-01-11T08:39:52.647Z,1.00
2023-01-11T08:42:21.721Z,1.23
2023-01-11T08:44:52.289Z,1.00
2023-01-11T08:47:21.460Z,0.80
2023-01-11T08:49:50.820Z,0.80
2023-01-11T08:52:20.168Z,1.70
2023-01-11T08:54:49.177Z,0.80
2023-01-11T08:57:18.031Z,1.40
2023-01-11T08:59:47.058Z,0.80
2023-01-11T09:02:17.754Z,1.10
2023-01-11T09:04:47.033Z,1.00
2023-01-11T09:07:16.080Z,1.10
2023-01-11T09:09:45.157Z,0.90
2023-01-11T09:12:14.534Z,1.20
2023-01-11T09:14:43.970Z,1.27
2023-01-11T09:17:12.155Z,0.80
2023-01-11T09:19:42.771Z,0.93
2023-01-11T09:22:11.707Z,1.20
2023-01-11T09:24:39.789Z,1.77
2023-01-11T09:27:08.651Z,1.70
2023-01-11T09:29:37.814Z,1.00
2023-01-11T09:32:06.956Z,0.90
2023-01-11T09:34:36.154Z,0.90
2023-01-11T09:37:08.011Z,0.90
2023-01-11T09:39:37.165Z,0.93
2023-01-11T09:42:15.262Z,1.70
2023-01-11T09:44:49.743Z,0.70
2023-01-11T09:47:21.088Z,1.13
2023-01-11T09:49:56.119Z,0.97
2023-01-11T09:52:32.903Z,1.00
2023-01-11T09:55:02.675Z,0.70
2023-01-11T09:57:39.787Z,0.77
2023-01-11T10:00:14.607Z,1.00
2023-01-11T10:02:51.503Z,0.70
2023-01-11T10:05:29.738Z,0.90
2023-01-11T10:18:23.623Z,0.57
2023-01-11T10:18:32.991Z,0.70
2023-01-11T10:19:50.169Z,0.70
2023-01-11T10:22:23.406Z,0.80
2023-01-11T10:24:59.694Z,1.03
2023-01-11T10:27:32.204Z,0.80
2023-01-11T10:30:13.670Z,0.70
2023-01-11T10:32:54.233Z,1.07
2023-01-11T10:35:41.262Z,1.00
2023-01-11T10:38:30.921Z,0.90
2023-01-11T10:41:12.023Z,0.90
2023-01-11T10:43:44.180Z,1.00
2023-01-11T10:46:14.649Z,0.80
2023-01-11T10:48:44.147Z,0.80
2023-01-11T10:51:24.505Z,0.70
2023-01-11T10:53:59.822Z,0.60
2023-01-11T10:56:42.938Z,0.87
2023-01-11T10:59:34.871Z,0.80
2023-01-11T11:02:08.655Z,0.87
2023-01-11T11:04:44.755Z,1.30
2023-01-11T11:07:18.991Z,0.50
2023-01-11T11:09:50.410Z,0.60
2023-01-11T11:12:22.870Z,0.80
2023-01-11T11:14:53.641Z,0.80
2023-01-11T11:17:26.126Z,0.70
2023-01-11T11:19:55.115Z,0.90
2023-01-11T11:22:23.771Z,0.70
2023-01-11T11:24:56.001Z,0.60
2023-01-11T11:27:28.755Z,0.53
2023-01-11T11:29:58.215Z,1.27
2023-01-11T11:32:29.216Z,0.80
2023-01-11T11:34:57.446Z,0.70
2023-01-11T11:37:28.812Z,0.67
2023-01-11T11:39:57.834Z,1.10
2023-01-11T11:42:28.688Z,0.60
2023-01-11T11:45:07.838Z,0.80
2023-01-11T11:47:36.500Z,0.60
2023-01-11T11:50:43.108Z,1.30
2023-01-11T11:53:19.270Z,1.00
2023-01-11T11:55:47.712Z,0.90
2023-01-11T11:58:20.677Z,0.87
2023-01-11T12:00:50.766Z,0.83
2023-01-11T12:03:21.704Z,0.67
2023-01-11T12:05:52.422Z,0.90
2023-01-11T12:08:21.675Z,0.80
2023-01-11T12:10:53.537Z,0.90
2023-01-11T12:13:31.197Z,0.93
2023-01-11T12:16:00.515Z,0.87
2023-01-11T12:18:32.902Z,0.60
2023-01-11T12:21:20.275Z,0.83
2023-01-11T12:23:49.213Z,0.70
2023-01-11T12:26:27.498Z,1.13
2023-01-11T12:29:08.123Z,0.50
2023-01-11T12:31:41.893Z,0.80
2023-01-11T12:34:23.681Z,0.70
2023-01-11T12:36:56.780Z,1.17
2023-01-11T12:39:32.832Z,0.83
2023-01-11T12:42:22.078Z,0.83
2023-01-11T12:45:04.498Z,1.43
2023-01-11T12:47:43.010Z,0.90
2023-01-11T12:50:15.715Z,0.80
2023-01-11T12:52:54.955Z,0.60
2023-01-11T12:55:29.876Z,1.10
2023-01-11T12:58:01.743Z,0.90
2023-01-11T13:01:06.771Z,1.07
2023-01-11T13:03:56.858Z,0.57
2023-01-11T13:06:28.591Z,0.60
2023-01-11T13:09:03.197Z,0.87
2023-01-11T13:11:45.712Z,1.30
2023-01-11T13:14:30.735Z,0.70
2023-01-11T13:17:05.528Z,0.93
2023-01-11T13:19:38.528Z,1.00
2023-01-11T13:22:12.714Z,1.40
2023-01-11T13:24:42.640Z,0.77
2023-01-11T13:27:17.785Z,1.00
2023-01-11T13:29:48.558Z,0.80
2023-01-11T13:32:22.245Z,1.40
2023-01-11T13:34:53.924Z,0.60
2023-01-11T13:37:25.328Z,1.23
2023-01-11T13:39:58.626Z,0.70
2023-01-11T13:42:30.509Z,0.70
2023-01-11T13:45:01.054Z,0.70
2023-01-11T13:47:34.196Z,0.80
2023-01-11T13:50:05.396Z,0.60
2023-01-11T13:52:42.067Z,1.00
2023-01-11T13:55:20.940Z,0.80
2023-01-11T13:57:55.489Z,0.70
2023-01-11T14:00:25.868Z,0.70
2023-01-11T14:02:58.219Z,0.80
2023-01-11T14:05:30.493Z,0.80
2023-01-11T14:08:08.861Z,0.90
2023-01-11T14:10:41.432Z,0.70
2023-01-11T14:13:36.361Z,0.60
2023-01-11T14:16:09.021Z,0.70
2023-01-11T14:18:42.008Z,0.70
2023-01-11T14:21:16.327Z,0.80
2023-01-11T14:23:49.236Z,0.90
2023-01-11T14:26:33.372Z,0.80
2023-01-11T14:29:09.661Z,0.73
2023-01-11T14:31:47.140Z,0.80
2023-01-11T14:34:42.045Z,1.07
2023-01-11T14:37:24.457Z,0.70
2023-01-11T14:40:12.391Z,0.70
2023-01-11T14:42:54.363Z,0.90
2023-01-11T14:45:32.396Z,0.97
2023-01-11T14:48:08.923Z,0.93
2023-01-11T14:50:44.931Z,0.60
2023-01-11T14:53:14.927Z,0.80
2023-01-11T14:55:46.494Z,0.70
2023-01-11T14:58:21.448Z,0.70
2023-01-11T15:01:11.005Z,0.67
2023-01-11T15:03:57.819Z,0.60
2023-01-11T15:06:33.557Z,0.63
2023-01-11T15:09:02.617Z,0.80
2023-01-11T15:11:37.392Z,1.53
2023-01-11T15:14:07.650Z,0.67
2023-01-11T15:16:55.509Z,0.60
2023-01-11T15:19:31.788Z,0.70
2023-01-11T15:22:05.841Z,0.60
2023-01-11T15:24:36.036Z,0.80
2023-01-11T15:27:06.171Z,0.70
2023-01-11T15:29:36.661Z,0.30
2023-01-11T15:32:16.433Z,0.77
2023-01-11T15:34:46.690Z,0.80
2023-01-11T15:37:28.057Z,0.97
2023-01-11T15:39:59.993Z,0.93
2023-01-11T15:42:55.414Z,0.70
2023-01-11T15:45:28.337Z,0.70
2023-01-11T15:48:15.553Z,0.70
2023-01-11T15:51:05.252Z,0.80
2023-01-11T15:53:47.419Z,0.60
2023-01-11T15:56:38.836Z,0.80
2023-01-11T15:59:18.935Z,0.90
2023-01-11T16:02:01.603Z,0.70
2023-01-11T16:04:30.927Z,1.00
2023-01-11T16:07:00.580Z,0.87
2023-01-11T16:09:33.530Z,0.80
2023-01-11T16:12:11.064Z,0.60
2023-01-11T16:15:06.094Z,0.83
2023-01-11T16:17:38.398Z,0.67
2023-01-11T16:20:17.889Z,0.70
2023-01-11T16:22:52.001Z,1.13
2023-01-11T16:25:23.553Z,0.93
2023-01-11T16:27:56.037Z,0.73
2023-01-11T16:30:27.829Z,0.70
2023-01-11T16:33:13.915Z,0.70
2023-01-11T16:35:43.596Z,0.70
2023-01-11T16:38:17.501Z,0.90
2023-01-11T16:40:50.929Z,1.00
2023-01-11T16:43:21.659Z,0.80
2023-01-11T16:45:54.133Z,1.00
2023-01-11T16:48:24.306Z,0.80
2023-01-11T16:51:01.089Z,1.10
2023-01-11T16:53:30.500Z,0.70
2023-01-11T16:56:05.417Z,0.73
2023-01-11T16:58:35.733Z,0.97
2023-01-11T17:01:05.820Z,1.50
2023-01-11T17:03:35.909Z,1.33
2023-01-11T17:06:16.561Z,1.03
2023-01-11T17:08:46.847Z,3.20
2023-01-11T17:11:23.607Z,1.70
2023-01-11T17:14:05.131Z,1.23
2023-01-11T17:16:37.980Z,0.87
2023-01-11T17:19:10.405Z,0.90
2023-01-11T17:21:39.416Z,1.17
2023-01-11T17:24:09.253Z,2.37
2023-01-11T17:26:42.790Z,1.83
2023-01-11T17:29:14.298Z,1.20
2023-01-11T17:31:42.756Z,0.90
2023-01-11T17:34:18.766Z,1.20
2023-01-11T17:36:47.918Z,1.50
2023-01-11T17:39:23.730Z,2.47
2023-01-11T17:42:11.228Z,1.57
2023-01-11T17:44:57.724Z,1.60
2023-01-11T17:47:26.719Z,1.30
2023-01-11T17:49:57.264Z,1.20
2023-01-11T17:52:27.464Z,1.70
2023-01-11T17:55:03.647Z,1.20
2023-01-11T17:57:34.414Z,1.90
2023-01-11T18:00:19.968Z,1.47
2023-01-11T18:02:49.277Z,1.63
2023-01-11T18:05:19.419Z,2.23
2023-01-11T18:07:52.323Z,2.03
2023-01-11T18:10:22.158Z,1.97
2023-01-11T18:12:52.516Z,2.37
2023-01-11T18:15:23.514Z,1.23
2023-01-11T18:17:56.829Z,1.57
2023-01-11T18:20:40.997Z,1.20
2023-01-11T18:23:20.483Z,1.80
2023-01-11T18:25:48.606Z,2.00
2023-01-11T18:28:39.037Z,1.80
2023-01-11T18:31:08.547Z,1.40
2023-01-11T18:33:40.571Z,1.70
2023-01-11T18:36:21.091Z,1.10
2023-01-11T18:38:49.238Z,1.70
2023-01-11T18:41:35.929Z,2.20
2023-01-11T18:44:04.893Z,1.77
2023-01-11T18:46:34.572Z,1.40
2023-01-11T18:49:03.305Z,2.57
2023-01-11T18:51:34.963Z,1.67
2023-01-11T18:54:03.137Z,2.10
2023-01-11T18:56:31.306Z,0.90
2023-01-11T18:59:00.085Z,1.10
2023-01-11T19:01:31.714Z,0.97
2023-01-11T19:04:02.791Z,1.00
2023-01-11T19:06:31.303Z,1.40
2023-01-11T19:08:59.828Z,2.00
2023-01-11T19:11:29.064Z,1.40
2023-01-11T19:13:57.302Z,1.50
2023-01-11T19:16:26.150Z,1.37
2023-01-11T19:18:57.539Z,1.67
2023-01-11T19:21:27.363Z,1.30
2023-01-11T19:34:29.889Z,1.07
2023-01-11T19:39:42.302Z,1.13
2023-01-11T19:42:10.349Z,1.30
2023-01-11T19:44:39.745Z,1.27
2023-01-11T19:47:11.903Z,1.30
2023-01-11T19:49:40.745Z,1.20
2023-01-11T19:52:12.543Z,1.13
2023-01-11T19:54:43.422Z,1.97
2023-01-11T19:57:12.229Z,5.40
2023-01-11T19:59:40.221Z,6.20
2023-01-11T20:02:08.805Z,5.27
2023-01-11T20:04:39.828Z,4.53
2023-01-11T20:07:08.247Z,5.77
2023-01-11T20:09:37.706Z,5.40
2023-01-11T20:12:07.854Z,4.93
2023-01-11T20:14:36.460Z,8.30
2023-01-11T20:17:04.862Z,4.53
2023-01-11T20:19:32.887Z,8.70
2023-01-11T20:22:00.929Z,3.77
2023-01-11T20:24:29.903Z,2.33
2023-01-11T20:26:59.216Z,1.87
2023-01-11T20:29:29.018Z,2.13
2023-01-11T20:32:13.378Z,1.30
2023-01-11T20:34:41.631Z,1.50
2023-01-11T20:37:09.653Z,1.37
2023-01-11T20:39:37.618Z,1.73
2023-01-11T20:42:05.631Z,1.50
2023-01-11T20:44:34.967Z,2.17
2023-01-11T20:47:02.974Z,2.17
2023-01-11T20:49:31.223Z,1.70
2023-01-11T20:51:59.350Z,1.90
2023-01-11T20:54:27.775Z,1.77
2023-01-11T20:57:01.155Z,3.77
2023-01-11T20:59:32.167Z,3.60
2023-01-11T21:02:01.541Z,5.73
2023-01-11T21:04:29.723Z,1.80
2023-01-11T21:06:57.696Z,2.70
2023-01-11T21:09:25.679Z,1.10
2023-01-11T21:11:54.155Z,2.60
2023-01-11T21:14:22.734Z,2.67
2023-01-11T21:16:50.779Z,1.60
2023-01-11T21:19:20.163Z,1.53
2023-01-11T21:21:49.715Z,1.30
2023-01-11T21:24:18.145Z,1.97
2023-01-11T21:26:47.958Z,0.97
2023-01-11T21:29:16.037Z,1.30
2023-01-11T21:31:44.131Z,1.40
2023-01-11T21:34:13.375Z,1.00
2023-01-11T21:36:57.965Z,1.33
2023-01-11T21:39:28.014Z,1.47
2023-01-11T21:41:56.106Z,1.50
2023-01-11T21:44:27.630Z,1.97
2023-01-11T21:46:56.342Z,1.37
2023-01-11T21:49:24.690Z,1.23
2023-01-11T21:51:53.213Z,1.20
2023-01-11T21:54:21.687Z,1.67
2023-01-11T21:56:51.977Z,3.20
2023-01-11T21:59:20.368Z,1.40
2023-01-11T22:01:49.188Z,1.70
2023-01-11T22:04:19.296Z,1.47
2023-01-11T22:06:51.628Z,3.23
2023-01-11T22:09:20.459Z,3.83
2023-01-11T22:11:51.023Z,1.70
2023-01-11T22:14:20.145Z,1.57
2023-01-11T22:16:48.456Z,1.47
2023-01-11T22:19:16.964Z,1.30
2023-01-11T22:21:45.099Z,1.20
2023-01-11T22:24:13.510Z,1.37
2023-01-11T22:26:41.866Z,1.20
2023-01-11T22:29:15.152Z,1.57
2023-01-11T22:31:46.642Z,1.33
2023-01-11T22:34:16.348Z,1.77
2023-01-11T22:36:45.293Z,1.90
2023-01-11T22:39:14.395Z,1.50
2023-01-11T22:41:42.459Z,1.00
2023-01-11T22:44:12.001Z,1.90
2023-01-11T22:46:40.056Z,1.07
2023-01-11T22:49:08.411Z,1.10
2023-01-11T22:51:36.725Z,2.40
2023-01-11T22:54:06.354Z,1.30
2023-01-11T22:56:35.015Z,1.60
2023-01-11T22:59:03.335Z,1.67
2023-01-11T23:01:34.457Z,1.57
2023-01-11T23:04:03.242Z,1.40
2023-01-11T23:06:32.706Z,1.40
2023-01-11T23:09:01.557Z,1.57
2023-01-11T23:11:49.296Z,1.20
2023-01-11T23:14:18.875Z,1.47
2023-01-11T23:16:50.185Z,1.70
2023-01-11T23:19:20.042Z,1.27
2023-01-11T23:21:48.977Z,1.17
2023-01-11T23:24:17.967Z,1.73
2023-01-11T23:26:46.375Z,2.17
2023-01-11T23:29:14.653Z,1.37
2023-01-11T23:31:43.596Z,1.10
2023-01-11T23:34:13.777Z,1.53
2023-01-11T23:36:43.328Z,1.97
2023-01-11T23:39:14.710Z,2.60
2023-01-11T23:42:00.484Z,1.47
2023-01-11T23:44:28.623Z,2.10
2023-01-11T23:47:14.389Z,1.60
2023-01-11T23:49:44.707Z,1.67
2023-01-11T23:52:12.936Z,1.50
2023-01-11T23:54:41.203Z,1.70
2023-01-11T23:57:09.327Z,0.90
2023-01-11T23:59:37.339Z,2.20
